Hawi, Hawaii
Current Conditions -  °F | °C
As of 12:56 AM on Thursday 27 Nov 2014 (Local Time) from PHSF Reporting Station
Clear Clear  
Wind Chill: 43°   Ceiling: Unl
Heat Index: 43°   Visibility: 10mi
Dew Point: 35°   Wind: 3mph
Humidity: 73%   Direction: 130°SE
Pressure: 30.35"   Gusts: NA
Location:  20.24°N, 155.82°W
Report Text: PHSF 271056Z AUTO 13003KT 10SM CLR 06/02 A3035 RMK AO2 SLP173 T00630017 $
Loading
Personal Weather Stations






























Interactive Weather Map New forecast layout! Learn more

10-Day Weather Forecast

Advertisements
Track Severe Weather on mobile